sensor_id;sensor_type;location;lat;lon;timestamp;temperature;humidity
16287;DHT22;8251;53.568;10.018;2023-11-21T00:01:12;12.40;94.60
16287;DHT22;8251;53.568;10.018;2023-11-21T00:03:39;12.40;95.00
16287;DHT22;8251;53.568;10.018;2023-11-21T00:06:07;12.40;94.70
16287;DHT22;8251;53.568;10.018;2023-11-21T00:08:34;12.40;94.60
16287;DHT22;8251;53.568;10.018;2023-11-21T00:11:02;12.40;94.60
16287;DHT22;8251;53.568;10.018;2023-11-21T00:13:32;12.40;94.60
16287;DHT22;8251;53.568;10.018;2023-11-21T00:16:00;12.30;94.40
16287;DHT22;8251;53.568;10.018;2023-11-21T00:18:27;12.20;94.40
16287;DHT22;8251;53.568;10.018;2023-11-21T00:20:54;12.10;94.20
16287;DHT22;8251;53.568;10.018;2023-11-21T00:23:24;12.10;94.20
16287;DHT22;8251;53.568;10.018;2023-11-21T00:25:51;12.10;94.20
16287;DHT22;8251;53.568;10.018;2023-11-21T00:28:18;12.00;94.20
16287;DHT22;8251;53.568;10.018;2023-11-21T00:30:46;12.00;94.10
16287;DHT22;8251;53.568;10.018;2023-11-21T00:33:13;12.00;94.10
16287;DHT22;8251;53.568;10.018;2023-11-21T00:35:40;11.90;94.00
16287;DHT22;8251;53.568;10.018;2023-11-21T00:38:07;11.90;94.00
16287;DHT22;8251;53.568;10.018;2023-11-21T00:40:35;11.90;93.90
16287;DHT22;8251;53.568;10.018;2023-11-21T00:43:02;11.90;94.00
16287;DHT22;8251;53.568;10.018;2023-11-21T00:45:29;11.90;93.90
16287;DHT22;8251;53.568;10.018;2023-11-21T00:47:57;11.90;93.90
16287;DHT22;8251;53.568;10.018;2023-11-21T00:50:24;11.90;93.90
16287;DHT22;8251;53.568;10.018;2023-11-21T00:52:51;11.90;93.90
16287;DHT22;8251;53.568;10.018;2023-11-21T00:55:18;11.90;93.90
16287;DHT22;8251;53.568;10.018;2023-11-21T00:57:45;11.90;93.80
16287;DHT22;8251;53.568;10.018;2023-11-21T01:00:13;11.80;93.70
16287;DHT22;8251;53.568;10.018;2023-11-21T01:02:41;11.70;93.50
16287;DHT22;8251;53.568;10.018;2023-11-21T01:05:11;11.60;93.70
16287;DHT22;8251;53.568;10.018;2023-11-21T01:07:38;11.60;93.80
16287;DHT22;8251;53.568;10.018;2023-11-21T01:10:05;11.50;93.90
16287;DHT22;8251;53.568;10.018;2023-11-21T01:12:34;11.50;93.90
16287;DHT22;8251;53.568;10.018;2023-11-21T01:15:02;11.40;94.00
16287;DHT22;8251;53.568;10.018;2023-11-21T01:17:29;11.40;94.00
16287;DHT22;8251;53.568;10.018;2023-11-21T01:19:56;11.30;94.10
16287;DHT22;8251;53.568;10.018;2023-11-21T01:22:25;11.30;94.00
16287;DHT22;8251;53.568;10.018;2023-11-21T01:24:52;11.30;94.20
16287;DHT22;8251;53.568;10.018;2023-11-21T01:27:19;11.30;94.10
16287;DHT22;8251;53.568;10.018;2023-11-21T01:29:46;11.20;94.00
16287;DHT22;8251;53.568;10.018;2023-11-21T01:32:13;11.20;93.90
16287;DHT22;8251;53.568;10.018;2023-11-21T01:34:40;11.20;93.80
16287;DHT22;8251;53.568;10.018;2023-11-21T01:37:07;11.10;93.90
16287;DHT22;8251;53.568;10.018;2023-11-21T01:39:36;11.10;93.90
16287;DHT22;8251;53.568;10.018;2023-11-21T01:42:05;11.10;93.90
16287;DHT22;8251;53.568;10.018;2023-11-21T01:44:33;11.00;93.80
16287;DHT22;8251;53.568;10.018;2023-11-21T01:47:00;11.00;93.80
16287;DHT22;8251;53.568;10.018;2023-11-21T01:49:30;10.90;93.70
16287;DHT22;8251;53.568;10.018;2023-11-21T01:51:58;10.90;93.70
16287;DHT22;8251;53.568;10.018;2023-11-21T01:54:26;10.90;93.70
16287;DHT22;8251;53.568;10.018;2023-11-21T01:56:58;10.90;93.70
16287;DHT22;8251;53.568;10.018;2023-11-21T01:59:32;11.00;93.50
16287;DHT22;8251;53.568;10.018;2023-11-21T02:02:00;10.90;93.40
16287;DHT22;8251;53.568;10.018;2023-11-21T02:04:28;10.90;93.40
16287;DHT22;8251;53.568;10.018;2023-11-21T02:06:55;10.90;93.50
16287;DHT22;8251;53.568;10.018;2023-11-21T02:09:25;10.90;93.50
16287;DHT22;8251;53.568;10.018;2023-11-21T02:11:52;10.90;93.40
16287;DHT22;8251;53.568;10.018;2023-11-21T02:14:23;10.90;93.30
16287;DHT22;8251;53.568;10.018;2023-11-21T02:16:50;10.90;93.30
16287;DHT22;8251;53.568;10.018;2023-11-21T02:19:18;10.90;93.20
16287;DHT22;8251;53.568;10.018;2023-11-21T02:21:49;10.80;92.80
16287;DHT22;8251;53.568;10.018;2023-11-21T02:24:19;10.80;92.70
16287;DHT22;8251;53.568;10.018;2023-11-21T02:26:47;10.70;92.70
16287;DHT22;8251;53.568;10.018;2023-11-21T02:29:14;10.70;92.70
16287;DHT22;8251;53.568;10.018;2023-11-21T02:31:44;10.70;92.80
16287;DHT22;8251;53.568;10.018;2023-11-21T02:34:15;10.70;92.70
16287;DHT22;8251;53.568;10.018;2023-11-21T02:36:42;10.70;92.80
16287;DHT22;8251;53.568;10.018;2023-11-21T02:39:09;10.70;92.90
16287;DHT22;8251;53.568;10.018;2023-11-21T02:41:39;10.70;92.80
16287;DHT22;8251;53.568;10.018;2023-11-21T02:44:06;10.80;92.80
16287;DHT22;8251;53.568;10.018;2023-11-21T02:46:33;10.80;92.80
16287;DHT22;8251;53.568;10.018;2023-11-21T02:49:00;10.80;92.80
16287;DHT22;8251;53.568;10.018;2023-11-21T02:51:28;10.80;92.50
16287;DHT22;8251;53.568;10.018;2023-11-21T02:53:56;10.80;92.40
16287;DHT22;8251;53.568;10.018;2023-11-21T02:56:24;10.80;92.40
16287;DHT22;8251;53.568;10.018;2023-11-21T02:58:55;10.80;92.30
16287;DHT22;8251;53.568;10.018;2023-11-21T03:01:22;10.80;92.30
16287;DHT22;8251;53.568;10.018;2023-11-21T03:03:50;10.80;92.20
16287;DHT22;8251;53.568;10.018;2023-11-21T03:06:18;10.80;92.30
16287;DHT22;8251;53.568;10.018;2023-11-21T03:08:45;10.90;92.40
16287;DHT22;8251;53.568;10.018;2023-11-21T03:11:12;10.90;92.30
16287;DHT22;8251;53.568;10.018;2023-11-21T03:13:39;10.90;92.20
16287;DHT22;8251;53.568;10.018;2023-11-21T03:16:09;10.90;92.20
16287;DHT22;8251;53.568;10.018;2023-11-21T03:18:36;10.80;92.10
16287;DHT22;8251;53.568;10.018;2023-11-21T03:21:03;10.80;92.10
16287;DHT22;8251;53.568;10.018;2023-11-21T03:23:31;10.80;92.20
16287;DHT22;8251;53.568;10.018;2023-11-21T03:25:58;10.80;92.20
16287;DHT22;8251;53.568;10.018;2023-11-21T03:28:25;10.90;92.20
16287;DHT22;8251;53.568;10.018;2023-11-21T03:30:52;10.80;92.10
16287;DHT22;8251;53.568;10.018;2023-11-21T03:33:20;10.80;91.90
16287;DHT22;8251;53.568;10.018;2023-11-21T03:35:48;10.80;91.90
16287;DHT22;8251;53.568;10.018;2023-11-21T03:38:16;10.80;91.70
16287;DHT22;8251;53.568;10.018;2023-11-21T03:40:43;10.80;91.90
16287;DHT22;8251;53.568;10.018;2023-11-21T03:43:10;10.80;92.00
16287;DHT22;8251;53.568;10.018;2023-11-21T03:45:37;10.80;92.00
16287;DHT22;8251;53.568;10.018;2023-11-21T03:48:06;10.80;91.80
16287;DHT22;8251;53.568;10.018;2023-11-21T03:50:35;10.80;91.80
16287;DHT22;8251;53.568;10.018;2023-11-21T03:53:02;10.80;91.80
16287;DHT22;8251;53.568;10.018;2023-11-21T03:55:29;10.70;91.80
16287;DHT22;8251;53.568;10.018;2023-11-21T03:57:57;10.80;91.80
16287;DHT22;8251;53.568;10.018;2023-11-21T04:00:25;10.80;91.90
16287;DHT22;8251;53.568;10.018;2023-11-21T04:02:52;10.90;92.00
16287;DHT22;8251;53.568;10.018;2023-11-21T04:05:20;10.90;92.00
16287;DHT22;8251;53.568;10.018;2023-11-21T04:07:50;10.90;91.90
16287;DHT22;8251;53.568;10.018;2023-11-21T04:10:17;10.80;91.80
16287;DHT22;8251;53.568;10.018;2023-11-21T04:12:44;10.80;91.80
16287;DHT22;8251;53.568;10.018;2023-11-21T04:15:12;10.80;91.80
16287;DHT22;8251;53.568;10.018;2023-11-21T04:17:40;10.80;91.80
16287;DHT22;8251;53.568;10.018;2023-11-21T04:20:07;10.90;91.90
16287;DHT22;8251;53.568;10.018;2023-11-21T04:22:37;10.90;91.90
16287;DHT22;8251;53.568;10.018;2023-11-21T04:25:08;10.90;91.90
16287;DHT22;8251;53.568;10.018;2023-11-21T04:27:35;10.90;91.90
16287;DHT22;8251;53.568;10.018;2023-11-21T04:30:03;10.90;91.90
16287;DHT22;8251;53.568;10.018;2023-11-21T04:32:30;10.90;91.90
16287;DHT22;8251;53.568;10.018;2023-11-21T04:34:57;10.90;91.90
16287;DHT22;8251;53.568;10.018;2023-11-21T04:37:24;10.90;91.80
16287;DHT22;8251;53.568;10.018;2023-11-21T04:39:51;11.00;91.80
16287;DHT22;8251;53.568;10.018;2023-11-21T04:42:20;10.90;91.80
16287;DHT22;8251;53.568;10.018;2023-11-21T04:44:47;10.90;91.80
16287;DHT22;8251;53.568;10.018;2023-11-21T04:47:14;10.90;91.80
16287;DHT22;8251;53.568;10.018;2023-11-21T04:49:42;10.90;91.80
16287;DHT22;8251;53.568;10.018;2023-11-21T04:52:09;10.90;91.70
16287;DHT22;8251;53.568;10.018;2023-11-21T04:54:36;11.00;91.70
16287;DHT22;8251;53.568;10.018;2023-11-21T04:57:05;11.00;91.70
16287;DHT22;8251;53.568;10.018;2023-11-21T04:59:34;11.00;91.70
16287;DHT22;8251;53.568;10.018;2023-11-21T05:02:01;10.90;91.60
16287;DHT22;8251;53.568;10.018;2023-11-21T05:04:28;10.90;91.60
16287;DHT22;8251;53.568;10.018;2023-11-21T05:06:55;10.90;91.60
16287;DHT22;8251;53.568;10.018;2023-11-21T05:09:22;10.90;91.60
16287;DHT22;8251;53.568;10.018;2023-11-21T05:11:50;10.90;91.60
16287;DHT22;8251;53.568;10.018;2023-11-21T05:14:17;10.90;91.60
16287;DHT22;8251;53.568;10.018;2023-11-21T05:16:45;10.90;91.50
16287;DHT22;8251;53.568;10.018;2023-11-21T05:19:12;10.90;91.40
16287;DHT22;8251;53.568;10.018;2023-11-21T05:21:40;10.90;91.60
16287;DHT22;8251;53.568;10.018;2023-11-21T05:24:07;10.90;91.60
16287;DHT22;8251;53.568;10.018;2023-11-21T05:26:34;10.90;91.50
16287;DHT22;8251;53.568;10.018;2023-11-21T05:29:01;10.90;91.40
16287;DHT22;8251;53.568;10.018;2023-11-21T05:31:28;10.90;91.30
16287;DHT22;8251;53.568;10.018;2023-11-21T05:33:57;10.90;91.30
16287;DHT22;8251;53.568;10.018;2023-11-21T05:36:24;11.00;91.40
16287;DHT22;8251;53.568;10.018;2023-11-21T05:38:52;11.00;91.40
16287;DHT22;8251;53.568;10.018;2023-11-21T05:41:19;10.90;91.30
16287;DHT22;8251;53.568;10.018;2023-11-21T05:43:46;10.90;91.20
16287;DHT22;8251;53.568;10.018;2023-11-21T05:46:16;10.90;91.30
16287;DHT22;8251;53.568;10.018;2023-11-21T05:48:48;10.90;91.30
16287;DHT22;8251;53.568;10.018;2023-11-21T05:51:21;10.90;91.40
16287;DHT22;8251;53.568;10.018;2023-11-21T05:53:48;10.90;91.40
16287;DHT22;8251;53.568;10.018;2023-11-21T05:56:15;10.90;91.30
16287;DHT22;8251;53.568;10.018;2023-11-21T05:58:43;10.90;91.30
16287;DHT22;8251;53.568;10.018;2023-11-21T06:01:10;10.90;91.10
16287;DHT22;8251;53.568;10.018;2023-11-21T06:03:38;10.90;91.20
16287;DHT22;8251;53.568;10.018;2023-11-21T06:06:05;10.90;91.20
16287;DHT22;8251;53.568;10.018;2023-11-21T06:08:34;11.00;91.20
16287;DHT22;8251;53.568;10.018;2023-11-21T06:11:01;11.00;91.30
16287;DHT22;8251;53.568;10.018;2023-11-21T06:13:28;11.00;91.20
16287;DHT22;8251;53.568;10.018;2023-11-21T06:15:56;11.00;91.20
16287;DHT22;8251;53.568;10.018;2023-11-21T06:18:24;11.00;91.10
16287;DHT22;8251;53.568;10.018;2023-11-21T06:20:50;11.00;91.10
16287;DHT22;8251;53.568;10.018;2023-11-21T06:23:19;11.00;91.10
16287;DHT22;8251;53.568;10.018;2023-11-21T06:25:48;11.10;91.10
16287;DHT22;8251;53.568;10.018;2023-11-21T06:28:15;11.10;91.00
16287;DHT22;8251;53.568;10.018;2023-11-21T06:30:43;11.00;90.80
16287;DHT22;8251;53.568;10.018;2023-11-21T06:33:11;11.00;90.90
16287;DHT22;8251;53.568;10.018;2023-11-21T06:35:38;11.00;90.80
16287;DHT22;8251;53.568;10.018;2023-11-21T06:38:05;11.00;90.70
16287;DHT22;8251;53.568;10.018;2023-11-21T06:40:32;11.00;90.60
16287;DHT22;8251;53.568;10.018;2023-11-21T06:43:01;10.90;90.60
16287;DHT22;8251;53.568;10.018;2023-11-21T06:45:28;10.90;90.70
16287;DHT22;8251;53.568;10.018;2023-11-21T06:47:55;10.90;90.60
16287;DHT22;8251;53.568;10.018;2023-11-21T06:50:22;10.90;90.50
16287;DHT22;8251;53.568;10.018;2023-11-21T06:52:49;10.90;90.50
16287;DHT22;8251;53.568;10.018;2023-11-21T06:55:16;10.90;90.60
16287;DHT22;8251;53.568;10.018;2023-11-21T06:57:43;10.90;90.60
16287;DHT22;8251;53.568;10.018;2023-11-21T07:00:12;10.90;90.70
16287;DHT22;8251;53.568;10.018;2023-11-21T07:02:40;10.90;90.70
16287;DHT22;8251;53.568;10.018;2023-11-21T07:05:07;10.90;90.60
16287;DHT22;8251;53.568;10.018;2023-11-21T07:07:34;10.90;90.60
16287;DHT22;8251;53.568;10.018;2023-11-21T07:10:04;10.90;90.40
16287;DHT22;8251;53.568;10.018;2023-11-21T07:12:31;10.90;90.50
16287;DHT22;8251;53.568;10.018;2023-11-21T07:14:58;10.90;90.50
16287;DHT22;8251;53.568;10.018;2023-11-21T07:17:27;10.90;90.50
16287;DHT22;8251;53.568;10.018;2023-11-21T07:19:53;10.90;90.50
16287;DHT22;8251;53.568;10.018;2023-11-21T07:22:20;10.90;90.40
16287;DHT22;8251;53.568;10.018;2023-11-21T07:24:48;11.00;90.50
16287;DHT22;8251;53.568;10.018;2023-11-21T07:27:16;11.00;90.60
16287;DHT22;8251;53.568;10.018;2023-11-21T07:29:43;11.00;90.50
16287;DHT22;8251;53.568;10.018;2023-11-21T07:32:11;11.00;90.40
16287;DHT22;8251;53.568;10.018;2023-11-21T07:34:40;11.00;90.40
16287;DHT22;8251;53.568;10.018;2023-11-21T07:37:07;11.00;90.40
16287;DHT22;8251;53.568;10.018;2023-11-21T07:39:34;11.00;90.10
16287;DHT22;8251;53.568;10.018;2023-11-21T07:42:01;11.00;90.10
16287;DHT22;8251;53.568;10.018;2023-11-21T07:44:28;11.00;90.30
16287;DHT22;8251;53.568;10.018;2023-11-21T07:46:55;11.00;90.40
16287;DHT22;8251;53.568;10.018;2023-11-21T07:49:23;11.00;90.80
16287;DHT22;8251;53.568;10.018;2023-11-21T07:51:51;11.10;90.50
16287;DHT22;8251;53.568;10.018;2023-11-21T07:54:19;11.10;90.60
16287;DHT22;8251;53.568;10.018;2023-11-21T07:56:47;11.10;90.50
16287;DHT22;8251;53.568;10.018;2023-11-21T07:59:13;11.10;90.20
16287;DHT22;8251;53.568;10.018;2023-11-21T08:01:41;11.10;90.30
16287;DHT22;8251;53.568;10.018;2023-11-21T08:04:11;11.10;90.20
16287;DHT22;8251;53.568;10.018;2023-11-21T08:06:43;11.10;90.20
16287;DHT22;8251;53.568;10.018;2023-11-21T08:09:19;11.10;90.30
16287;DHT22;8251;53.568;10.018;2023-11-21T08:11:50;11.10;90.20
16287;DHT22;8251;53.568;10.018;2023-11-21T08:14:17;11.10;90.10
16287;DHT22;8251;53.568;10.018;2023-11-21T08:16:47;11.10;90.10
16287;DHT22;8251;53.568;10.018;2023-11-21T08:19:20;11.10;90.20
16287;DHT22;8251;53.568;10.018;2023-11-21T08:21:51;11.20;90.10
16287;DHT22;8251;53.568;10.018;2023-11-21T08:24:21;11.20;90.00
16287;DHT22;8251;53.568;10.018;2023-11-21T08:26:48;11.20;89.90
16287;DHT22;8251;53.568;10.018;2023-11-21T08:29:16;11.20;90.10
16287;DHT22;8251;53.568;10.018;2023-11-21T08:31:44;11.20;89.50
16287;DHT22;8251;53.568;10.018;2023-11-21T08:34:12;11.20;89.60
16287;DHT22;8251;53.568;10.018;2023-11-21T08:36:42;11.20;89.30
16287;DHT22;8251;53.568;10.018;2023-11-21T08:39:09;11.20;89.30
16287;DHT22;8251;53.568;10.018;2023-11-21T08:41:37;11.30;89.40
16287;DHT22;8251;53.568;10.018;2023-11-21T08:44:05;11.30;89.50
16287;DHT22;8251;53.568;10.018;2023-11-21T08:46:33;11.30;90.00
16287;DHT22;8251;53.568;10.018;2023-11-21T08:49:04;11.30;89.00
16287;DHT22;8251;53.568;10.018;2023-11-21T08:51:31;11.30;88.50
16287;DHT22;8251;53.568;10.018;2023-11-21T08:53:58;11.30;88.50
16287;DHT22;8251;53.568;10.018;2023-11-21T08:56:28;11.30;88.80
16287;DHT22;8251;53.568;10.018;2023-11-21T08:58:56;11.30;88.90
16287;DHT22;8251;53.568;10.018;2023-11-21T09:01:23;11.30;88.10
16287;DHT22;8251;53.568;10.018;2023-11-21T09:03:51;11.30;87.60
16287;DHT22;8251;53.568;10.018;2023-11-21T09:06:18;11.20;87.50
16287;DHT22;8251;53.568;10.018;2023-11-21T09:08:45;11.20;87.80
16287;DHT22;8251;53.568;10.018;2023-11-21T09:11:16;11.20;88.00
16287;DHT22;8251;53.568;10.018;2023-11-21T09:13:46;11.20;88.00
16287;DHT22;8251;53.568;10.018;2023-11-21T09:16:15;11.20;88.20
16287;DHT22;8251;53.568;10.018;2023-11-21T09:18:42;11.20;88.30
16287;DHT22;8251;53.568;10.018;2023-11-21T09:21:10;11.20;88.60
16287;DHT22;8251;53.568;10.018;2023-11-21T09:23:38;11.30;88.90
16287;DHT22;8251;53.568;10.018;2023-11-21T09:26:08;11.30;89.10
16287;DHT22;8251;53.568;10.018;2023-11-21T09:28:41;11.30;89.00
16287;DHT22;8251;53.568;10.018;2023-11-21T09:31:12;11.30;88.80
16287;DHT22;8251;53.568;10.018;2023-11-21T09:33:43;11.30;88.60
16287;DHT22;8251;53.568;10.018;2023-11-21T09:36:13;11.20;88.60
16287;DHT22;8251;53.568;10.018;2023-11-21T09:38:40;11.20;88.80
16287;DHT22;8251;53.568;10.018;2023-11-21T09:41:15;11.20;88.70
16287;DHT22;8251;53.568;10.018;2023-11-21T09:43:45;11.20;88.80
16287;DHT22;8251;53.568;10.018;2023-11-21T09:46:13;11.20;88.80
16287;DHT22;8251;53.568;10.018;2023-11-21T09:48:49;11.10;89.00
16287;DHT22;8251;53.568;10.018;2023-11-21T09:51:19;11.20;89.40
16287;DHT22;8251;53.568;10.018;2023-11-21T09:53:50;11.10;89.40
16287;DHT22;8251;53.568;10.018;2023-11-21T09:56:18;11.20;89.20
16287;DHT22;8251;53.568;10.018;2023-11-21T09:58:51;11.10;89.20
16287;DHT22;8251;53.568;10.018;2023-11-21T10:01:22;11.10;89.40
16287;DHT22;8251;53.568;10.018;2023-11-21T10:03:57;11.20;89.80
16287;DHT22;8251;53.568;10.018;2023-11-21T10:06:28;11.20;89.90
16287;DHT22;8251;53.568;10.018;2023-11-21T10:08:58;11.30;90.00
16287;DHT22;8251;53.568;10.018;2023-11-21T10:11:27;11.30;90.00
16287;DHT22;8251;53.568;10.018;2023-11-21T10:13:58;11.40;89.50
16287;DHT22;8251;53.568;10.018;2023-11-21T10:16:26;11.40;89.40
16287;DHT22;8251;53.568;10.018;2023-11-21T10:18:56;11.40;89.00
16287;DHT22;8251;53.568;10.018;2023-11-21T10:21:24;11.50;89.00
16287;DHT22;8251;53.568;10.018;2023-11-21T10:23:53;11.40;88.30
16287;DHT22;8251;53.568;10.018;2023-11-21T10:26:22;11.50;88.60
16287;DHT22;8251;53.568;10.018;2023-11-21T10:28:57;11.50;87.90
16287;DHT22;8251;53.568;10.018;2023-11-21T10:31:24;11.50;87.50
16287;DHT22;8251;53.568;10.018;2023-11-21T10:33:51;11.50;87.80
16287;DHT22;8251;53.568;10.018;2023-11-21T10:36:29;11.60;88.00
16287;DHT22;8251;53.568;10.018;2023-11-21T10:38:56;11.70;86.70
16287;DHT22;8251;53.568;10.018;2023-11-21T10:41:23;11.70;86.70
16287;DHT22;8251;53.568;10.018;2023-11-21T10:43:53;11.70;86.30
16287;DHT22;8251;53.568;10.018;2023-11-21T10:46:22;11.60;86.30
16287;DHT22;8251;53.568;10.018;2023-11-21T10:48:52;11.60;86.30
16287;DHT22;8251;53.568;10.018;2023-11-21T10:51:21;11.60;86.10
16287;DHT22;8251;53.568;10.018;2023-11-21T10:53:51;11.50;86.30
16287;DHT22;8251;53.568;10.018;2023-11-21T10:56:18;11.60;86.60
16287;DHT22;8251;53.568;10.018;2023-11-21T10:58:49;11.60;86.60
16287;DHT22;8251;53.568;10.018;2023-11-21T11:01:20;11.70;86.50
16287;DHT22;8251;53.568;10.018;2023-11-21T11:03:49;11.70;86.10
16287;DHT22;8251;53.568;10.018;2023-11-21T11:06:21;11.60;85.50
16287;DHT22;8251;53.568;10.018;2023-11-21T11:08:50;11.60;85.50
16287;DHT22;8251;53.568;10.018;2023-11-21T11:11:18;11.50;85.10
16287;DHT22;8251;53.568;10.018;2023-11-21T11:13:45;11.40;85.40
16287;DHT22;8251;53.568;10.018;2023-11-21T11:16:13;11.50;86.10
16287;DHT22;8251;53.568;10.018;2023-11-21T11:18:42;11.50;86.50
16287;DHT22;8251;53.568;10.018;2023-11-21T11:21:22;11.40;85.70
16287;DHT22;8251;53.568;10.018;2023-11-21T11:24:05;11.40;85.60
16287;DHT22;8251;53.568;10.018;2023-11-21T11:26:42;11.40;86.30
16287;DHT22;8251;53.568;10.018;2023-11-21T11:29:19;11.40;86.50
16287;DHT22;8251;53.568;10.018;2023-11-21T11:31:55;11.50;85.90
16287;DHT22;8251;53.568;10.018;2023-11-21T11:34:29;11.50;84.90
16287;DHT22;8251;53.568;10.018;2023-11-21T11:37:01;11.40;83.50
16287;DHT22;8251;53.568;10.018;2023-11-21T11:39:34;11.30;83.90
16287;DHT22;8251;53.568;10.018;2023-11-21T11:42:03;11.40;84.40
16287;DHT22;8251;53.568;10.018;2023-11-21T11:44:50;11.40;84.50
16287;DHT22;8251;53.568;10.018;2023-11-21T11:47:21;11.50;85.10
16287;DHT22;8251;53.568;10.018;2023-11-21T11:49:57;11.50;84.30
16287;DHT22;8251;53.568;10.018;2023-11-21T11:52:38;11.50;84.00
16287;DHT22;8251;53.568;10.018;2023-11-21T11:55:09;11.50;82.80
16287;DHT22;8251;53.568;10.018;2023-11-21T11:57:39;11.40;83.00
16287;DHT22;8251;53.568;10.018;2023-11-21T12:00:11;11.40;83.20
16287;DHT22;8251;53.568;10.018;2023-11-21T12:02:42;11.40;83.30
16287;DHT22;8251;53.568;10.018;2023-11-21T12:05:11;11.40;83.40
16287;DHT22;8251;53.568;10.018;2023-11-21T12:07:43;11.40;83.10
16287;DHT22;8251;53.568;10.018;2023-11-21T12:10:14;11.40;82.50
16287;DHT22;8251;53.568;10.018;2023-11-21T12:12:48;11.30;82.80
16287;DHT22;8251;53.568;10.018;2023-11-21T12:15:16;11.30;83.00
16287;DHT22;8251;53.568;10.018;2023-11-21T12:17:44;11.40;83.10
16287;DHT22;8251;53.568;10.018;2023-11-21T12:20:12;11.30;82.40
16287;DHT22;8251;53.568;10.018;2023-11-21T12:22:44;11.40;82.90
16287;DHT22;8251;53.568;10.018;2023-11-21T12:25:21;11.30;82.80
16287;DHT22;8251;53.568;10.018;2023-11-21T12:27:53;11.30;82.80
16287;DHT22;8251;53.568;10.018;2023-11-21T12:30:21;11.30;82.70
16287;DHT22;8251;53.568;10.018;2023-11-21T12:32:50;11.30;82.40
16287;DHT22;8251;53.568;10.018;2023-11-21T12:35:19;11.30;82.30
16287;DHT22;8251;53.568;10.018;2023-11-21T12:37:48;11.20;82.40
16287;DHT22;8251;53.568;10.018;2023-11-21T12:40:16;11.10;82.60
16287;DHT22;8251;53.568;10.018;2023-11-21T12:42:46;11.10;83.00
16287;DHT22;8251;53.568;10.018;2023-11-21T12:45:21;11.10;83.30
16287;DHT22;8251;53.568;10.018;2023-11-21T12:47:54;11.10;83.60
16287;DHT22;8251;53.568;10.018;2023-11-21T12:50:26;11.10;83.40
16287;DHT22;8251;53.568;10.018;2023-11-21T12:52:58;11.10;83.60
16287;DHT22;8251;53.568;10.018;2023-11-21T12:55:25;11.10;83.40
16287;DHT22;8251;53.568;10.018;2023-11-21T12:57:55;11.00;83.70
16287;DHT22;8251;53.568;10.018;2023-11-21T13:00:28;11.00;84.10
16287;DHT22;8251;53.568;10.018;2023-11-21T13:02:59;11.00;84.30
16287;DHT22;8251;53.568;10.018;2023-11-21T13:05:27;11.00;84.50
16287;DHT22;8251;53.568;10.018;2023-11-21T13:07:55;10.90;84.50
16287;DHT22;8251;53.568;10.018;2023-11-21T13:10:23;10.90;85.00
16287;DHT22;8251;53.568;10.018;2023-11-21T13:12:55;10.90;85.30
16287;DHT22;8251;53.568;10.018;2023-11-21T13:15:24;10.80;85.40
16287;DHT22;8251;53.568;10.018;2023-11-21T13:17:51;10.80;85.60
16287;DHT22;8251;53.568;10.018;2023-11-21T13:20:19;10.80;85.60
16287;DHT22;8251;53.568;10.018;2023-11-21T13:22:48;10.70;85.80
16287;DHT22;8251;53.568;10.018;2023-11-21T13:25:17;10.70;86.10
16287;DHT22;8251;53.568;10.018;2023-11-21T13:27:44;10.70;86.30
16287;DHT22;8251;53.568;10.018;2023-11-21T13:30:15;10.70;86.60
16287;DHT22;8251;53.568;10.018;2023-11-21T13:32:44;10.80;86.70
16287;DHT22;8251;53.568;10.018;2023-11-21T13:35:12;10.70;86.90
16287;DHT22;8251;53.568;10.018;2023-11-21T13:37:51;10.80;87.10
16287;DHT22;8251;53.568;10.018;2023-11-21T13:40:22;10.80;87.20
16287;DHT22;8251;53.568;10.018;2023-11-21T13:42:52;10.90;87.20
16287;DHT22;8251;53.568;10.018;2023-11-21T13:45:22;10.90;87.00
16287;DHT22;8251;53.568;10.018;2023-11-21T13:47:51;10.80;86.70
16287;DHT22;8251;53.568;10.018;2023-11-21T13:50:22;10.80;86.60
16287;DHT22;8251;53.568;10.018;2023-11-21T13:52:54;10.80;86.60
16287;DHT22;8251;53.568;10.018;2023-11-21T13:55:21;10.80;86.40
16287;DHT22;8251;53.568;10.018;2023-11-21T13:57:51;10.80;86.30
16287;DHT22;8251;53.568;10.018;2023-11-21T14:00:19;10.80;86.20
16287;DHT22;8251;53.568;10.018;2023-11-21T14:03:27;10.80;86.40
16287;DHT22;8251;53.568;10.018;2023-11-21T14:06:11;10.80;86.30
16287;DHT22;8251;53.568;10.018;2023-11-21T14:08:46;10.70;86.40
16287;DHT22;8251;53.568;10.018;2023-11-21T14:11:13;10.70;86.10
16287;DHT22;8251;53.568;10.018;2023-11-21T14:13:44;10.70;86.40
16287;DHT22;8251;53.568;10.018;2023-11-21T14:16:14;10.70;86.20
16287;DHT22;8251;53.568;10.018;2023-11-21T14:18:43;10.70;86.00
16287;DHT22;8251;53.568;10.018;2023-11-21T14:21:21;10.60;86.00
16287;DHT22;8251;53.568;10.018;2023-11-21T14:23:48;10.60;86.00
16287;DHT22;8251;53.568;10.018;2023-11-21T14:26:15;10.60;86.30
16287;DHT22;8251;53.568;10.018;2023-11-21T14:28:43;10.50;86.50
16287;DHT22;8251;53.568;10.018;2023-11-21T14:31:10;10.60;86.40
16287;DHT22;8251;53.568;10.018;2023-11-21T14:33:39;10.50;86.20
16287;DHT22;8251;53.568;10.018;2023-11-21T14:36:09;10.50;86.50
16287;DHT22;8251;53.568;10.018;2023-11-21T14:38:36;10.50;86.50
16287;DHT22;8251;53.568;10.018;2023-11-21T14:41:05;10.50;86.20
16287;DHT22;8251;53.568;10.018;2023-11-21T14:43:33;10.40;85.90
16287;DHT22;8251;53.568;10.018;2023-11-21T14:46:01;10.40;85.10
16287;DHT22;8251;53.568;10.018;2023-11-21T14:48:29;10.30;84.90
16287;DHT22;8251;53.568;10.018;2023-11-21T14:51:09;10.30;85.20
16287;DHT22;8251;53.568;10.018;2023-11-21T14:53:58;10.30;85.00
16287;DHT22;8251;53.568;10.018;2023-11-21T14:56:32;10.30;85.30
16287;DHT22;8251;53.568;10.018;2023-11-21T14:59:00;10.30;85.60
16287;DHT22;8251;53.568;10.018;2023-11-21T15:01:31;10.40;85.60
16287;DHT22;8251;53.568;10.018;2023-11-21T15:04:10;10.40;85.60
16287;DHT22;8251;53.568;10.018;2023-11-21T15:06:49;10.40;85.00
16287;DHT22;8251;53.568;10.018;2023-11-21T15:09:18;10.30;84.80
16287;DHT22;8251;53.568;10.018;2023-11-21T15:12:03;10.30;84.80
16287;DHT22;8251;53.568;10.018;2023-11-21T15:14:40;10.30;84.80
16287;DHT22;8251;53.568;10.018;2023-11-21T15:17:09;10.30;85.00
16287;DHT22;8251;53.568;10.018;2023-11-21T15:19:36;10.20;85.20
16287;DHT22;8251;53.568;10.018;2023-11-21T15:22:05;10.20;85.50
16287;DHT22;8251;53.568;10.018;2023-11-21T15:24:33;10.10;85.70
16287;DHT22;8251;53.568;10.018;2023-11-21T15:27:00;10.10;86.40
16287;DHT22;8251;53.568;10.018;2023-11-21T15:29:29;10.00;86.80
16287;DHT22;8251;53.568;10.018;2023-11-21T15:31:58;10.00;87.20
16287;DHT22;8251;53.568;10.018;2023-11-21T15:34:29;10.00;87.30
16287;DHT22;8251;53.568;10.018;2023-11-21T15:37:01;10.00;87.50
16287;DHT22;8251;53.568;10.018;2023-11-21T15:39:31;10.00;87.50
16287;DHT22;8251;53.568;10.018;2023-11-21T15:41:59;9.90;87.60